MET9200 - Baltimore to Ramstein AFB

Airbus A330-243
792MT
7 hrs 20 mins
3481 nm
Charter - M | W | F

Departure

Departing from
Baltimore (BWI)
Departure gate
Scheduled Departure
GMT 1000
Local 0500
METAR KBWI 170154Z 00000KT 10SM BKN025 OVC047 04/M02 A3035 RMK AO2 SLP278 T00441017
TAF KBWI 162337Z 1700/1806 VRB03KT P6SM OVC025 FM170600 00000KT P6SM OVC015 FM170800 00000KT 4SM BR OVC010 FM171300 14004KT 1 1/2SM BR OVC003 FM171500 15005KT 3/4SM -SHRA BR OVC008 FM171800 16006KT 1 1/2SM -SHRA BR OVC008 FM172100 17007KT 3SM BR OVC008 FM1801
  • No charts available

Arrival

Arriving at
Ramstein AFB (RMS)
Arrival gate
Ramp
Scheduled Arrival
GMT 1720
Local 1920
METAR ETAR 170159Z 00000KT 9999 OVC012 M05/M06 A3043 RMK AO2A $
TAF TAF ETAR 170204Z 1702/1808 03009KT 9999 BKN015 QNH3039INS BECMG 1706/1707 03012KT 9999 SCT020 QNH3042INS BECMG 1711/1712 05015G20KT 9999 SCT015 BKN030 QNH3045INS BECMG 1721/1722 05015G20KT 9999 SCT020 QNH3050INS TXM01/1715Z TNM11/1705Z

Route Map

Planning Resources

SWL J174 LFV J150 STOOL J585 YQI J575 YQY J577 YQX BAKUR UN546 STU NUMPO UP2 NIGIT PENUX SANDY UL15 RANUX UN858 LIMGO TOLEY
Route:
OFP Layout:
Units:
Detailed Navlog:
ETOPS Planning:
Plan Stepclimbs:
Runway Analysis:
Include NOTAMS:
FIR NOTAMS:
Flight Maps:

Return Flights

MET9201
Airbus A330-243
1500 GMT

Popularity

Hub Current Bids PiReps this month Total PiReps
KMCI 0 0 1
KLAX 0 0 0
KBOS 0 0 0